Time;durP1;ratioP1;P1;durP2;ratioP2;P2;SDS_P1;SDS_P2;PMS_P1;PMS_P2;Temp;Humidity;BMP_temperature;BMP_pressure;BME280_temperature;BME280_humidity;BME280_pressure;Samples;Min_cycle;Max_cycle;Signal;HPM_P1;HPM_P2
2023/01/15 00:02:22;;;;;;;6.63;1.42;;;;;;;9.29;91.30;100060.41;4999092;28;20066;-69
2023/01/15 00:04:50;;;;;;;7.47;1.63;;;;;;;9.56;91.03;100071.09;4979713;28;20054;-69
2023/01/15 00:07:18;;;;;;;5.47;1.02;;;;;;;9.81;90.38;100065.63;4995492;28;20054;-68
2023/01/15 00:09:45;;;;;;;7.72;1.50;;;;;;;9.62;86.91;100067.06;4999916;28;20085;-69
2023/01/15 00:12:13;;;;;;;5.47;1.40;;;;;;;9.48;87.63;100069.16;4998596;28;20078;-67
2023/01/15 00:14:40;;;;;;;5.43;1.42;;;;;;;9.51;88.65;100054.78;5014471;28;20050;-69
2023/01/15 00:17:07;;;;;;;6.93;1.38;;;;;;;9.53;87.90;100058.81;5013870;28;20073;-69
2023/01/15 00:19:35;;;;;;;7.30;1.33;;;;;;;9.39;87.17;100058.16;4994770;28;20047;-68
2023/01/15 00:22:02;;;;;;;5.90;1.30;;;;;;;9.39;87.84;100060.09;4994928;28;20046;-71
2023/01/15 00:30:01;;;;;;;5.90;1.30;;;;;;;9.44;88.19;100068.19;4998970;28;20054;-68
2023/01/15 00:32:29;;;;;;;7.53;1.42;;;;;;;9.21;87.54;100061.19;5007779;28;20054;-71
2023/01/15 00:34:59;;;;;;;4.55;1.10;;;;;;;9.34;89.11;100071.25;4979766;28;20047;-67
2023/01/15 00:37:27;;;;;;;5.80;1.40;;;;;;;9.44;88.15;100071.75;4980928;28;20062;-69
2023/01/15 00:39:54;;;;;;;7.72;1.33;;;;;;;9.03;87.63;100068.59;4999094;28;20054;-69
2023/01/15 00:42:21;;;;;;;5.70;1.15;;;;;;;9.12;88.68;100054.88;4998598;28;20067;-68
2023/01/15 00:44:49;;;;;;;7.43;1.35;;;;;;;9.20;89.99;100070.56;4999400;28;20046;-68
2023/01/15 00:47:16;;;;;;;7.38;1.73;;;;;;;9.36;88.73;100069.00;4999593;28;20061;-68
2023/01/15 00:49:43;;;;;;;7.47;1.75;;;;;;;9.38;87.96;100080.47;4980452;28;20146;-69
2023/01/15 00:52:11;;;;;;;6.35;1.80;;;;;;;9.38;88.04;100064.00;4995538;28;20149;-68
2023/01/15 00:54:38;;;;;;;8.48;1.48;;;;;;;9.25;88.87;100067.66;4999521;28;20057;-69
2023/01/15 00:57:06;;;;;;;7.97;1.45;;;;;;;9.41;89.72;100049.59;5013126;28;20058;-69
2023/01/15 00:59:34;;;;;;;5.55;1.20;;;;;;;9.48;89.71;100061.75;4998762;28;20050;-68
2023/01/15 01:02:01;;;;;;;12.35;1.90;;;;;;;9.63;89.72;100060.44;4996333;28;20059;-70
2023/01/15 01:04:29;;;;;;;5.95;1.20;;;;;;;9.46;88.35;100055.75;4977294;28;20070;-68
2023/01/15 01:06:57;;;;;;;6.70;1.30;;;;;;;9.53;88.96;100063.50;4992756;28;20049;-68
2023/01/15 01:09:24;;;;;;;5.55;1.48;;;;;;;9.79;88.07;100045.06;4998583;28;20046;-68
2023/01/15 01:11:52;;;;;;;8.82;1.70;;;;;;;9.99;86.29;100044.38;4996909;28;20058;-69
2023/01/15 01:14:19;;;;;;;4.90;1.15;;;;;;;9.91;88.50;100053.47;4997440;28;20046;-69
2023/01/15 01:16:46;;;;;;;7.57;1.35;;;;;;;9.42;87.68;100065.75;5011865;28;20042;-70
2023/01/15 01:19:17;;;;;;;8.07;1.52;;;;;;;9.44;88.41;100069.00;4992686;28;20047;-68
2023/01/15 01:21:46;;;;;;;9.52;1.55;;;;;;;9.57;88.68;100075.47;4991927;28;20058;-68
2023/01/15 01:24:16;;;;;;;4.38;0.95;;;;;;;9.51;87.55;100076.75;4998364;28;20062;-69
2023/01/15 01:26:44;;;;;;;;;;;;;;;9.58;86.42;100071.59;4996712;28;20070;-69
2023/01/15 01:29:12;;;;;;;6.07;1.27;;;;;;;9.33;86.49;100067.69;4997951;28;20329;-70
2023/01/15 01:31:40;;;;;;;6.53;1.38;;;;;;;9.29;87.00;100065.91;4996317;28;20054;-69
2023/01/15 01:34:09;;;;;;;7.35;1.40;;;;;;;9.39;87.84;100069.16;4981036;28;20038;-69
2023/01/15 01:36:39;;;;;;;6.68;1.30;;;;;;;9.37;87.19;100078.84;4971459;28;20061;-68
2023/01/15 01:39:11;;;;;;;6.72;1.42;;;;;;;9.57;86.09;100076.28;5012450;28;20054;-68
2023/01/15 01:41:39;;;;;;;8.65;1.30;;;;;;;9.65;86.91;100080.16;4997039;28;20062;-69
2023/01/15 01:44:32;;;;;;;5.00;0.90;;;;;;;9.47;84.71;100078.53;4995927;28;20054;-70
2023/01/15 01:47:02;;;;;;;8.18;1.40;;;;;;;9.22;84.33;100076.56;5010413;28;20065;-69
2023/01/15 01:49:29;;;;;;;5.63;1.35;;;;;;;9.20;85.54;100085.13;4973301;28;20043;-68
2023/01/15 01:52:03;;;;;;;7.45;1.13;;;;;;;9.27;84.71;100085.47;4986661;28;20050;-69
2023/01/15 01:54:30;;;;;;;6.13;1.25;;;;;;;9.41;83.25;100088.88;4979495;28;20050;-69
2023/01/15 01:56:58;;;;;;;6.75;1.13;;;;;;;9.35;84.57;100084.66;4979829;28;20509;-68
2023/01/15 01:59:25;;;;;;;7.63;1.27;;;;;;;9.67;83.92;100088.91;5012349;28;20052;-69
2023/01/15 02:01:53;;;;;;;4.15;0.90;;;;;;;9.51;83.63;100091.31;4977079;28;20065;-69
2023/01/15 02:04:21;;;;;;;5.72;1.10;;;;;;;9.27;85.63;100079.16;5009512;28;20053;-69
2023/01/15 02:06:50;;;;;;;6.38;1.02;;;;;;;9.59;85.34;100085.00;4991177;28;20058;-69
2023/01/15 02:09:18;;;;;;;6.18;1.20;;;;;;;9.50;83.95;100089.69;4981618;28;20062;-68
2023/01/15 02:11:46;;;;;;;7.20;1.25;;;;;;;9.57;84.10;100081.78;4997181;28;20051;-60
2023/01/15 02:14:21;;;;;;;5.68;0.95;;;;;;;9.51;85.63;100098.75;4979549;28;20054;-62
2023/01/15 02:16:56;;;;;;;10.07;1.63;;;;;;;9.59;84.58;100104.25;5007608;28;20069;-60
2023/01/15 02:20:01;;;;;;;3.88;1.08;;;;;;;9.45;83.76;100111.84;4975208;28;20183;-61
2023/01/15 02:22:34;;;;;;;3.83;0.95;;;;;;;9.36;84.88;100107.47;4995108;28;20080;-59
2023/01/15 02:25:31;;;;;;;9.73;1.55;;;;;;;9.27;85.10;100110.19;4994644;28;20081;-61
2023/01/15 02:28:15;;;;;;;5.85;0.98;;;;;;;9.32;85.54;100115.53;4983321;28;20494;-60
2023/01/15 02:30:46;;;;;;;5.75;0.82;;;;;;;9.36;84.86;100127.53;4965560;28;20051;-61
2023/01/15 02:33:19;;;;;;;4.10;1.00;;;;;;;9.42;86.40;100136.41;4960363;28;20066;-69
2023/01/15 02:35:56;;;;;;;8.45;1.00;;;;;;;9.24;85.62;100123.75;4997178;28;20057;-69
2023/01/15 02:38:26;;;;;;;7.07;1.60;;;;;;;9.32;85.93;100114.72;4977798;28;20049;-69
2023/01/15 02:40:55;;;;;;;9.23;1.17;;;;;;;9.27;86.21;100134.94;4959299;28;20414;-69
2023/01/15 02:43:24;;;;;;;7.25;1.05;;;;;;;9.13;85.98;100135.03;4979806;28;20590;-69
2023/01/15 02:45:53;;;;;;;7.20;1.15;;;;;;;8.94;86.65;100114.44;4995510;28;20061;-69
2023/01/15 02:48:27;;;;;;;7.13;1.10;;;;;;;8.80;86.46;100120.03;4994466;28;20058;-70
2023/01/15 02:51:00;;;;;;;3.92;0.80;;;;;;;8.82;86.37;100137.00;4997735;28;20050;-69
2023/01/15 02:53:29;;;;;;;6.85;1.15;;;;;;;9.02;86.06;100150.19;4995513;28;20054;-70
2023/01/15 02:56:03;;;;;;;5.57;0.93;;;;;;;9.33;85.88;100141.88;4974493;28;20050;-68
2023/01/15 02:58:39;;;;;;;9.02;1.25;;;;;;;9.54;85.69;100142.91;4997065;28;20050;-70
2023/01/15 03:01:13;;;;;;;3.97;0.98;;;;;;;9.43;86.28;100138.81;4995366;28;20054;-69
2023/01/15 03:04:02;;;;;;;5.35;1.55;;;;;;;9.23;82.86;100164.16;5010332;28;20050;-69
2023/01/15 03:06:37;;;;;;;7.75;1.40;;;;;;;9.25;84.86;100169.34;5011441;28;20049;-68
2023/01/15 03:09:06;;;;;;;9.25;1.17;;;;;;;8.91;84.94;100168.06;4995229;28;20046;-68
2023/01/15 03:11:36;;;;;;;6.60;1.33;;;;;;;9.03;85.91;100160.03;4994849;28;20054;-69
2023/01/15 03:14:07;;;;;;;6.97;1.23;;;;;;;9.00;85.06;100162.59;4995366;28;20046;-69
2023/01/15 03:16:46;;;;;;;;;;;;;;;9.09;84.54;100163.47;4996551;28;20042;-68
2023/01/15 03:19:28;;;;;;;6.65;1.52;;;;;;;9.09;85.52;100164.28;5003170;28;20021;-69
2023/01/15 03:22:12;;;;;;;9.52;1.40;;;;;;;9.37;84.66;100169.53;4989979;28;20054;-68
2023/01/15 03:24:48;;;;;;;8.18;1.77;;;;;;;8.90;83.71;100179.38;5010597;28;20434;-69
2023/01/15 03:27:19;;;;;;;10.00;1.23;;;;;;;8.76;85.26;100173.16;4992860;28;20054;-69
2023/01/15 03:29:54;;;;;;;5.57;1.10;;;;;;;8.74;86.30;100181.72;4996107;28;20055;-70
2023/01/15 03:32:21;;;;;;;8.80;1.50;;;;;;;8.65;84.76;100178.09;4994501;28;20540;-68
2023/01/15 03:34:51;;;;;;;6.28;0.98;;;;;;;8.67;86.07;100167.59;4996651;28;20490;-68
2023/01/15 03:37:22;;;;;;;9.45;1.40;;;;;;;8.74;85.61;100161.66;4995594;28;20073;-68
2023/01/15 03:39:51;;;;;;;9.60;1.50;;;;;;;8.79;84.26;100173.34;5011425;28;20091;-68
2023/01/15 03:42:23;;;;;;;8.52;1.20;;;;;;;8.72;84.99;100161.16;4994855;28;20055;-68
2023/01/15 03:45:12;;;;;;;5.80;0.70;;;;;;;8.71;84.45;100162.31;4961253;28;20814;-70
2023/01/15 03:48:01;;;;;;;6.07;1.20;;;;;;;8.79;84.29;100150.53;5011015;28;20445;-70
2023/01/15 03:50:28;;;;;;;4.93;1.13;;;;;;;8.68;84.97;100151.97;4994376;28;20046;-68
2023/01/15 03:53:22;;;;;;;9.45;1.13;;;;;;;8.83;85.71;100163.34;4972235;28;20053;-69
2023/01/15 03:56:22;;;;;;;5.05;0.90;;;;;;;8.87;84.08;100158.81;4981004;28;20568;-69
2023/01/15 03:58:52;;;;;;;9.95;1.23;;;;;;;8.73;82.82;100152.63;4985339;28;20058;-69
2023/01/15 04:01:31;;;;;;;4.97;1.13;;;;;;;8.80;84.99;100165.91;4993606;28;20605;-69
2023/01/15 04:04:00;;;;;;;6.88;1.30;;;;;;;8.72;85.15;100162.00;4994243;28;20062;-68
2023/01/15 04:06:30;;;;;;;9.07;1.58;;;;;;;8.86;84.34;100165.44;4993396;28;20046;-69
2023/01/15 04:08:58;;;;;;;9.03;1.80;;;;;;;8.95;81.67;100165.50;4998505;28;20050;-69
2023/01/15 04:11:27;;;;;;;10.32;1.40;;;;;;;8.69;82.05;100164.53;4966764;28;20418;-68
2023/01/15 04:14:00;;;;;;;8.30;1.17;;;;;;;8.59;82.29;100145.59;4998809;28;20053;-67
2023/01/15 04:16:34;;;;;;;5.38;0.88;;;;;;;8.40;80.77;100159.53;4982730;28;20517;-68
2023/01/15 04:19:02;;;;;;;8.40;1.40;;;;;;;8.80;82.36;100136.50;4999821;28;20058;-69
2023/01/15 04:21:32;;;;;;;8.10;1.10;;;;;;;8.63;80.13;100136.41;4999413;28;20046;-69
2023/01/15 04:24:00;;;;;;;5.30;1.10;;;;;;;8.72;79.31;100144.69;4981147;28;20395;-69
2023/01/15 04:26:27;;;;;;;5.28;0.98;;;;;;;8.71;79.85;100135.66;4989828;28;20061;-70
2023/01/15 04:28:54;;;;;;;8.27;0.90;;;;;;;8.76;79.17;100130.03;5014788;28;20058;-69
2023/01/15 04:31:22;;;;;;;5.93;0.77;;;;;;;8.56;77.51;100138.00;4998997;28;20045;-69
2023/01/15 04:33:49;;;;;;;4.72;0.95;;;;;;;8.64;78.65;100143.53;4981044;28;20059;-69
2023/01/15 04:36:16;;;;;;;6.30;1.02;;;;;;;8.59;78.13;100151.91;4999011;28;20047;-69
2023/01/15 04:38:44;;;;;;;4.72;0.88;;;;;;;8.51;77.78;100160.88;4981776;28;20058;-69
2023/01/15 04:44:06;;;;;;;4.57;0.90;;;;;;;8.69;77.89;100176.34;4998779;28;20058;-69
2023/01/15 04:46:42;;;;;;;3.83;0.75;;;;;;;8.61;75.26;100185.31;4998664;28;20414;-70
2023/01/15 04:49:13;;;;;;;8.60;0.88;;;;;;;8.28;74.88;100183.97;4999126;28;20046;-69
2023/01/15 04:51:40;;;;;;;;;;;;;;;8.15;76.60;100182.06;5010164;28;20748;-69
2023/01/15 04:54:08;;;;;;;4.47;0.65;;;;;;;8.31;77.14;100186.09;4993744;28;19922;-69
2023/01/15 04:56:38;;;;;;;10.50;1.20;;;;;;;8.35;76.72;100180.81;4990188;28;20053;-70
2023/01/15 04:59:05;;;;;;;4.13;0.82;;;;;;;8.29;76.95;100193.81;4999140;28;20054;-69
2023/01/15 05:01:33;;;;;;;4.70;0.82;;;;;;;8.55;76.90;100189.34;5013214;28;20038;-68
2023/01/15 05:04:01;;;;;;;4.72;0.77;;;;;;;8.59;76.70;100184.84;4996748;28;20061;-68
2023/01/15 05:06:30;;;;;;;4.45;0.82;;;;;;;8.46;74.69;100193.94;5007096;28;20099;-69
2023/01/15 05:08:58;;;;;;;5.15;0.73;;;;;;;8.68;75.68;100193.13;4978670;28;20258;-69
2023/01/15 05:11:26;;;;;;;3.20;0.50;;;;;;;8.52;74.51;100189.97;4988509;28;20494;-68
2023/01/15 05:13:54;;;;;;;4.10;0.68;;;;;;;8.63;73.59;100191.31;4996693;28;20054;-69
2023/01/15 05:16:24;;;;;;;7.55;0.88;;;;;;;8.55;73.61;100205.81;4997631;28;20430;-68
2023/01/15 05:18:53;;;;;;;3.83;0.60;;;;;;;8.47;73.75;100205.75;4997565;28;20054;-68
2023/01/15 05:21:26;;;;;;;4.40;0.68;;;;;;;8.27;72.47;100204.28;4975240;28;20043;-68
2023/01/15 05:23:56;;;;;;;6.97;1.33;;;;;;;8.27;75.39;100198.81;4978271;28;20069;-69
2023/01/15 05:26:24;;;;;;;3.72;0.93;;;;;;;8.31;73.52;100193.50;4988850;28;20062;-68
2023/01/15 05:28:55;;;;;;;5.55;0.70;;;;;;;8.24;73.97;100191.22;4997889;28;20061;-70
2023/01/15 05:31:24;;;;;;;7.35;1.20;;;;;;;8.51;73.50;100193.00;4998691;28;20054;-69
2023/01/15 05:33:52;;;;;;;7.93;1.30;;;;;;;8.44;74.29;100196.19;4998143;28;20042;-67
2023/01/15 05:36:21;;;;;;;4.28;0.85;;;;;;;8.72;73.41;100197.69;4990530;28;20050;-69
2023/01/15 05:38:49;;;;;;;3.75;0.80;;;;;;;8.58;71.76;100204.34;4978122;28;20043;-69
2023/01/15 05:44:07;;;;;;;6.20;1.00;;;;;;;8.54;72.44;100217.09;4997668;28;20054;-68
2023/01/15 05:46:37;;;;;;;7.80;1.15;;;;;;;8.30;72.04;100220.13;4997118;28;20474;-68
2023/01/15 05:49:07;;;;;;;4.43;0.80;;;;;;;8.44;74.07;100222.84;5012787;28;20525;-68
2023/01/15 05:51:37;;;;;;;3.15;0.63;;;;;;;8.55;72.20;100229.69;4986721;28;20054;-69
2023/01/15 05:54:06;;;;;;;6.90;1.10;;;;;;;8.82;72.95;100235.06;4978647;28;20069;-68
2023/01/15 05:56:34;;;;;;;4.35;1.00;;;;;;;8.45;72.07;100232.69;4989824;28;20050;-68
2023/01/15 05:59:03;;;;;;;5.10;1.10;;;;;;;8.18;70.60;100243.72;4999453;28;20061;-68
2023/01/15 06:01:30;;;;;;;8.43;1.25;;;;;;;8.12;71.76;100248.53;5000627;28;20042;-68
2023/01/15 06:03:58;;;;;;;2.92;0.90;;;;;;;8.52;73.06;100252.28;5000851;28;20054;-68
2023/01/15 06:06:26;;;;;;;4.88;1.00;;;;;;;8.27;72.12;100256.44;5011402;28;20054;-67
2023/01/15 06:08:53;;;;;;;4.97;0.85;;;;;;;8.46;71.54;100280.94;4999873;28;20069;-68
2023/01/15 06:11:21;;;;;;;8.35;1.00;;;;;;;8.30;70.51;100271.47;4999414;28;20062;-68
2023/01/15 06:13:49;;;;;;;6.93;1.13;;;;;;;8.76;72.34;100277.50;4998562;28;20051;-68
2023/01/15 06:16:17;;;;;;;7.78;0.80;;;;;;;8.86;70.77;100272.56;4997319;28;20057;-68
2023/01/15 06:18:45;;;;;;;7.00;0.68;;;;;;;8.64;69.37;100274.50;4997383;28;20042;-69
2023/01/15 06:21:13;;;;;;;3.33;0.93;;;;;;;8.47;69.29;100286.13;4993801;28;20061;-68
2023/01/15 06:23:41;;;;;;;7.32;0.70;;;;;;;8.54;69.53;100264.56;4982440;28;20078;-67
2023/01/15 06:26:16;;;;;;;4.18;0.63;;;;;;;8.46;70.11;100278.22;4964180;28;20514;-69
2023/01/15 06:28:45;;;;;;;2.20;0.60;;;;;;;8.54;72.13;100282.97;4992589;28;20050;-68
2023/01/15 06:31:15;;;;;;;4.68;0.80;;;;;;;8.51;71.36;100289.06;4975747;28;20047;-68
2023/01/15 06:33:42;;;;;;;;;;;;;;;8.28;69.90;100284.69;4978398;28;20521;-69
2023/01/15 06:36:15;;;;;;;3.90;0.77;;;;;;;8.34;71.83;100287.00;4970870;28;19923;-69
2023/01/15 06:38:43;;;;;;;5.03;0.60;;;;;;;8.12;71.33;100291.59;4956765;29;20066;-69
2023/01/15 06:49:36;;;;;;;7.88;0.70;;;;;;;8.06;72.09;100312.81;4957686;28;20055;-67
2023/01/15 06:52:03;;;;;;;4.10;0.82;;;;;;;8.17;71.90;100316.97;4957236;28;20058;-69
2023/01/15 06:54:31;;;;;;;3.13;0.60;;;;;;;8.28;73.01;100326.63;4955933;29;20054;-68
2023/01/15 06:56:59;;;;;;;4.95;0.50;;;;;;;8.29;72.15;100324.72;4970074;28;20404;-68
2023/01/15 06:59:27;;;;;;;4.93;0.60;;;;;;;7.92;71.73;100329.28;4977001;28;20050;-69
2023/01/15 07:01:54;;;;;;;4.00;0.68;;;;;;;8.06;74.05;100336.69;4958901;28;20055;-69
2023/01/15 07:04:22;;;;;;;2.78;0.60;;;;;;;7.84;72.45;100340.16;4976458;28;20047;-67
2023/01/15 07:06:49;;;;;;;2.33;0.40;;;;;;;7.83;72.89;100353.06;4961836;28;20443;-69
2023/01/15 07:09:16;;;;;;;4.63;0.90;;;;;;;7.69;73.15;100348.66;4957238;28;20060;-69
2023/01/15 07:11:49;;;;;;;3.97;0.70;;;;;;;7.90;74.51;100345.22;4970542;28;20054;-69
2023/01/15 07:14:18;;;;;;;3.33;0.70;;;;;;;8.16;73.73;100342.78;4971436;28;20050;-68
2023/01/15 07:16:46;;;;;;;5.65;0.70;;;;;;;8.00;71.86;100345.03;4973420;28;20055;-69
2023/01/15 07:19:15;;;;;;;6.80;1.05;;;;;;;7.88;72.93;100336.50;4955454;29;20062;-68
2023/01/15 07:21:42;;;;;;;4.97;0.73;;;;;;;7.81;72.79;100359.97;4971772;28;20051;-69
2023/01/15 07:24:10;;;;;;;3.08;0.57;;;;;;;7.93;74.17;100354.78;4957187;29;20047;-69
2023/01/15 07:26:38;;;;;;;7.95;0.93;;;;;;;7.70;73.31;100358.53;4955538;28;20120;-68
2023/01/15 07:29:05;;;;;;;2.50;0.50;;;;;;;7.77;74.12;100362.50;4956956;28;20052;-68
2023/01/15 07:31:33;;;;;;;7.97;0.90;;;;;;;7.85;72.95;100366.44;4960120;28;20058;-68
2023/01/15 07:34:00;;;;;;;7.38;0.88;;;;;;;7.92;73.12;100372.34;4958217;28;20059;-69
2023/01/15 07:36:28;;;;;;;2.72;0.80;;;;;;;7.94;73.99;100381.91;4957236;29;20054;-68
2023/01/15 07:38:55;;;;;;;3.30;0.98;;;;;;;7.69;72.92;100387.88;4972991;28;20070;-69
2023/01/15 07:49:47;;;;;;;6.78;0.95;;;;;;;8.13;72.43;100376.31;4985502;28;20423;-68
2023/01/15 07:52:20;;;;;;;7.45;1.02;;;;;;;7.88;72.91;100372.16;4957335;28;20048;-70
2023/01/15 07:54:48;;;;;;;6.07;0.88;;;;;;;7.93;72.63;100366.56;4938426;29;20510;-70
2023/01/15 07:57:21;;;;;;;9.05;2.25;;;;;;;7.67;73.58;100373.66;4951795;29;20044;-70
2023/01/15 07:59:49;;;;;;;11.57;6.28;;;;;;;8.00;74.85;100377.16;4941548;29;20051;-69
2023/01/15 08:02:16;;;;;;;7.45;1.85;;;;;;;7.83;73.61;100372.25;4957862;29;20052;-70
2023/01/15 08:04:44;;;;;;;7.97;1.20;;;;;;;7.87;74.70;100373.28;4990446;28;20170;-69
2023/01/15 08:07:11;;;;;;;10.15;2.28;;;;;;;8.04;74.66;100369.91;4986356;28;20059;-70
2023/01/15 08:09:39;;;;;;;10.52;1.40;;;;;;;7.95;74.83;100371.72;4944045;29;20051;-69
2023/01/15 08:17:41;;;;;;;5.72;1.08;;;;;;;8.01;74.49;100384.25;4939019;29;20056;-69
2023/01/15 08:20:27;;;;;;;8.55;1.23;;;;;;;7.95;75.31;100375.28;4960527;28;20051;-68
2023/01/15 08:22:54;;;;;;;7.32;0.90;;;;;;;8.07;75.41;100374.81;4924236;29;20052;-68
2023/01/15 08:25:23;;;;;;;7.65;1.02;;;;;;;7.79;74.40;100379.44;4928191;28;20059;-70
2023/01/15 08:27:52;;;;;;;7.38;1.30;;;;;;;7.77;73.94;100370.72;4951216;29;20169;-69
2023/01/15 08:30:22;;;;;;;8.57;1.02;;;;;;;7.99;73.27;100387.28;4961422;28;20058;-70
2023/01/15 08:32:51;;;;;;;12.50;1.60;;;;;;;8.09;73.39;100390.94;4964121;28;20058;-70
2023/01/15 08:35:18;;;;;;;12.88;1.75;;;;;;;7.91;73.49;100385.25;4960351;28;20646;-69
2023/01/15 08:37:46;;;;;;;11.05;1.27;;;;;;;7.95;73.58;100394.50;4966805;28;20045;-69
2023/01/15 08:40:13;;;;;;;9.73;1.70;;;;;;;7.69;73.70;100395.25;4963047;28;20051;-69
2023/01/15 08:42:41;;;;;;;15.55;1.92;;;;;;;8.06;74.58;100399.78;4978846;28;20652;-69
2023/01/15 08:45:09;;;;;;;11.40;1.77;;;;;;;7.92;73.80;100399.78;4962798;28;20409;-69
2023/01/15 08:47:36;;;;;;;13.02;2.22;;;;;;;7.89;74.04;100390.25;4962216;28;20066;-69
2023/01/15 08:50:06;;;;;;;7.07;1.17;;;;;;;8.02;73.68;100382.31;4968321;28;20062;-69
2023/01/15 08:52:33;;;;;;;9.82;1.67;;;;;;;8.22;74.23;100373.66;4966351;28;20373;-69
2023/01/15 08:55:01;;;;;;;9.98;1.30;;;;;;;8.14;72.81;100364.25;4959773;28;20063;-68
2023/01/15 08:57:28;;;;;;;9.85;2.22;;;;;;;8.19;72.18;100371.53;4966951;28;20055;-69
2023/01/15 08:59:56;;;;;;;15.40;2.05;;;;;;;8.01;72.15;100365.03;4958857;28;20051;-69
2023/01/15 09:02:23;;;;;;;11.70;1.98;;;;;;;8.44;73.62;100346.34;4976730;28;20039;-71
2023/01/15 09:04:51;;;;;;;8.35;1.55;;;;;;;8.40;72.13;100357.13;4954415;28;20062;-69
2023/01/15 09:07:19;;;;;;;15.02;2.58;;;;;;;8.41;69.96;100358.75;4973181;28;20074;-68
2023/01/15 09:09:46;;;;;;;9.15;1.40;;;;;;;8.35;72.06;100375.63;4960215;28;20125;-69
2023/01/15 09:12:14;;;;;;;12.13;1.60;;;;;;;8.34;72.75;100380.28;5008305;28;20055;-69
2023/01/15 09:14:41;;;;;;;8.55;1.65;;;;;;;8.28;71.32;100377.97;4996336;28;20051;-68
2023/01/15 09:17:29;;;;;;;9.10;2.00;;;;;;;8.14;71.04;100383.44;4961588;28;20059;-69
2023/01/15 09:19:57;;;;;;;11.50;1.80;;;;;;;8.43;72.13;100381.19;5003366;28;20047;-71
2023/01/15 09:22:28;;;;;;;13.63;2.10;;;;;;;8.48;69.52;100381.09;4973069;28;20062;-68
2023/01/15 09:24:56;;;;;;;11.82;2.10;;;;;;;8.44;68.98;100385.56;4958288;28;20051;-68
2023/01/15 09:27:24;;;;;;;11.15;2.45;;;;;;;8.69;75.43;100393.25;4977291;28;20534;-73
2023/01/15 09:29:51;;;;;;;9.93;1.73;;;;;;;10.11;72.77;100372.06;4979063;28;20054;-70
2023/01/15 09:32:18;;;;;;;7.43;1.60;;;;;;;11.16;65.07;100370.72;4995285;28;20043;-69
2023/01/15 09:34:46;;;;;;;7.15;1.95;;;;;;;11.23;62.91;100382.06;4978614;28;20055;-70
2023/01/15 09:37:13;;;;;;;17.67;2.63;;;;;;;11.04;63.99;100381.59;4994825;28;20050;-74
2023/01/15 09:39:40;;;;;;;15.23;2.30;;;;;;;11.43;63.13;100384.16;4972001;28;20059;-70
2023/01/15 09:42:20;;;;;;;12.00;2.45;;;;;;;11.47;60.46;100378.81;4976703;28;20048;-70
2023/01/15 09:45:09;;;;;;;16.10;2.63;;;;;;;10.55;62.10;100385.59;4991142;28;20056;-69
2023/01/15 09:48:06;;;;;;;15.45;3.10;;;;;;;10.71;62.24;100394.22;4979088;28;20085;-71
2023/01/15 09:50:55;;;;;;;12.30;1.98;;;;;;;10.71;59.14;100402.47;4990688;28;20077;-71
2023/01/15 09:53:36;;;;;;;11.02;1.98;;;;;;;10.46;63.23;100404.03;4972000;28;20065;-71
2023/01/15 09:56:03;;;;;;;11.82;2.28;;;;;;;10.82;63.82;100404.63;4962796;28;20053;-70
2023/01/15 09:58:36;;;;;;;10.93;1.90;;;;;;;10.95;62.22;100411.91;4974083;28;20494;-70
2023/01/15 10:01:04;;;;;;;10.82;1.63;;;;;;;10.41;59.67;100406.94;4962305;28;20055;-70
2023/01/15 10:03:40;;;;;;;9.32;2.10;;;;;;;10.65;62.67;100409.28;4958185;28;20053;-68
2023/01/15 10:06:22;;;;;;;12.88;2.35;;;;;;;10.95;58.47;100405.56;4980423;28;20047;-71
2023/01/15 10:08:50;;;;;;;14.45;2.50;;;;;;;10.29;62.84;100394.94;4988411;28;20063;-71
2023/01/15 10:14:56;;;;;;;9.50;1.70;;;;;;;10.18;62.54;100397.19;4953129;28;20070;-73
2023/01/15 10:17:27;;;;;;;12.93;2.25;;;;;;;10.96;65.70;100398.94;4988766;28;20050;-71
2023/01/15 10:19:56;;;;;;;11.48;2.10;;;;;;;10.67;60.64;100405.06;4960381;28;20063;-69
2023/01/15 10:22:44;;;;;;;8.55;2.10;;;;;;;10.46;61.33;100383.97;4978545;28;20051;-71
2023/01/15 10:25:16;;;;;;;10.40;2.20;;;;;;;10.54;60.24;100381.25;4991912;28;20058;-71
2023/01/15 10:27:46;;;;;;;11.77;2.00;;;;;;;11.07;65.14;100392.78;4960156;28;20556;-70
2023/01/15 10:30:41;;;;;;;10.00;2.20;;;;;;;11.18;63.64;100393.25;4990660;28;20057;-71
2023/01/15 10:33:45;;;;;;;11.70;1.98;;;;;;;10.61;64.34;100389.84;4970928;28;20051;-69
2023/01/15 10:36:20;;;;;;;7.75;2.08;;;;;;;10.30;60.16;100385.53;4955227;28;20495;-70
2023/01/15 10:38:52;;;;;;;17.35;3.10;;;;;;;10.23;63.84;100389.56;4985465;28;20532;-69
2023/01/15 10:41:29;;;;;;;16.00;2.65;;;;;;;10.26;66.40;100382.63;4973584;28;20043;-71
2023/01/15 10:44:13;;;;;;;8.95;2.13;;;;;;;11.22;63.73;100377.69;4975037;28;20047;-71
2023/01/15 10:46:43;;;;;;;13.13;2.33;;;;;;;11.33;61.74;100399.09;4981560;28;20059;-72
2023/01/15 10:49:13;;;;;;;17.17;2.58;;;;;;;11.08;60.83;100388.91;4991057;28;20057;-70
2023/01/15 10:51:45;;;;;;;10.07;1.42;;;;;;;11.06;62.55;100377.38;4960378;28;20074;-70
2023/01/15 10:54:29;;;;;;;16.50;2.65;;;;;;;11.25;65.28;100391.66;4987699;28;20058;-70
2023/01/15 10:57:12;;;;;;;10.55;1.95;;;;;;;11.52;63.35;100393.25;4979463;28;20419;-69
2023/01/15 10:59:42;;;;;;;9.15;1.92;;;;;;;11.29;60.05;100389.03;4988314;28;20061;-72
2023/01/15 11:02:17;;;;;;;12.30;2.25;;;;;;;11.03;61.48;100391.81;4976964;28;20053;-71
2023/01/15 11:04:44;;;;;;;11.07;2.17;;;;;;;10.36;60.46;100378.75;4978513;28;20435;-72
2023/01/15 11:07:12;;;;;;;11.95;2.00;;;;;;;10.19;61.83;100380.34;4981411;28;20054;-71
2023/01/15 11:09:40;;;;;;;11.65;2.13;;;;;;;10.62;65.25;100388.69;4974518;28;20131;-69
2023/01/15 11:20:41;;;;;;;11.38;1.92;;;;;;;10.98;63.04;100367.16;4997375;28;20061;-71
2023/01/15 11:23:14;;;;;;;12.35;2.22;;;;;;;10.65;63.00;100368.75;4963153;28;20046;-70
2023/01/15 11:25:53;;;;;;;9.20;1.50;;;;;;;10.94;60.51;100365.38;4964048;28;20592;-70
2023/01/15 11:28:41;;;;;;;5.28;1.42;;;;;;;10.39;64.95;100362.41;4956197;28;20475;-72
2023/01/15 11:31:10;;;;;;;12.67;1.70;;;;;;;10.50;62.88;100349.97;4977013;28;20050;-72
2023/01/15 11:33:38;;;;;;;14.48;2.50;;;;;;;10.58;61.88;100348.34;4963107;28;20050;-72
2023/01/15 11:36:19;;;;;;;9.18;1.70;;;;;;;10.63;61.77;100362.78;4983350;28;20050;-71
2023/01/15 11:38:49;;;;;;;11.98;2.25;;;;;;;10.18;60.29;100358.66;4992676;28;20062;-71
2023/01/15 11:50:42;;;;;;;12.00;2.05;;;;;;;10.34;64.16;100359.81;4983869;28;20126;-70
2023/01/15 11:53:02;;;;;;;13.07;2.30;;;;;;;10.62;59.71;100352.88;4962296;28;20050;-70
2023/01/15 11:55:30;;;;;;;11.10;1.98;;;;;;;10.67;57.92;100354.69;4980000;28;20050;-71
2023/01/15 11:57:57;;;;;;;10.77;2.03;;;;;;;10.15;60.57;100351.81;4994935;28;20061;-69
2023/01/15 12:00:32;;;;;;;12.60;2.35;;;;;;;10.35;64.66;100341.34;4991570;28;20058;-70
2023/01/15 12:03:10;;;;;;;9.18;1.80;;;;;;;10.68;64.06;100350.78;4970310;28;20414;-70
2023/01/15 12:05:45;;;;;;;15.57;1.73;;;;;;;11.43;63.75;100356.59;4977990;28;20452;-69
2023/01/15 12:08:39;;;;;;;10.10;1.60;;;;;;;10.99;59.39;100362.47;4965007;28;20046;-69
2023/01/15 12:11:19;;;;;;;12.45;2.35;;;;;;;10.44;59.16;100343.00;4978903;28;20058;-70
2023/01/15 12:14:08;;;;;;;12.25;1.92;;;;;;;10.33;59.78;100349.13;4992726;28;20054;-70
2023/01/15 12:17:08;;;;;;;8.68;1.67;;;;;;;10.63;60.69;100313.22;4976226;28;20059;-71
2023/01/15 12:19:38;;;;;;;9.50;1.70;;;;;;;11.42;59.94;100332.09;4965789;28;20055;-68
2023/01/15 12:22:09;;;;;;;10.30;1.65;;;;;;;11.84;62.36;100318.19;4982032;28;20047;-71
2023/01/15 12:24:36;;;;;;;6.97;1.85;;;;;;;11.33;56.81;100308.09;4980203;28;20438;-68
2023/01/15 12:27:25;;;;;;;8.70;1.83;;;;;;;10.75;57.20;100315.31;4983396;28;20054;-70
2023/01/15 12:29:53;;;;;;;16.25;1.98;;;;;;;10.93;57.35;100303.94;4988189;28;20522;-70
2023/01/15 12:32:30;;;;;;;8.73;1.95;;;;;;;11.60;60.10;100295.84;4975265;28;20051;-68
2023/01/15 12:35:04;;;;;;;13.32;2.10;;;;;;;11.48;56.67;100306.75;4998946;28;20046;-70
2023/01/15 12:37:38;;;;;;;13.23;1.90;;;;;;;12.03;59.53;100313.06;4991398;28;20062;-69
2023/01/15 12:40:05;;;;;;;11.27;1.70;;;;;;;11.74;58.25;100290.97;4995301;28;20057;-70
2023/01/15 12:45:25;;;;;;;8.95;2.00;;;;;;;11.24;58.77;100292.72;4976932;28;20057;-69
2023/01/15 12:47:59;;;;;;;7.90;1.73;;;;;;;11.83;59.77;100277.94;4990988;28;20058;-69